sensor_id;sensor_type;location;lat;lon;timestamp;P1;durP1;ratioP1;P2;durP2;ratioP2
67585;SDS011;55785;47.946;20.540;2022-10-16T00:00:31;7.32;;;4.95;;
67585;SDS011;55785;47.946;20.540;2022-10-16T00:02:57;7.90;;;5.30;;
67585;SDS011;55785;47.946;20.540;2022-10-16T00:05:22;9.82;;;5.05;;
67585;SDS011;55785;47.946;20.540;2022-10-16T00:07:47;11.20;;;5.22;;
67585;SDS011;55785;47.946;20.540;2022-10-16T00:10:13;9.18;;;5.13;;
67585;SDS011;55785;47.946;20.540;2022-10-16T00:12:38;8.93;;;5.40;;
67585;SDS011;55785;47.946;20.540;2022-10-16T00:15:03;7.15;;;4.90;;
67585;SDS011;55785;47.946;20.540;2022-10-16T00:17:29;6.03;;;4.40;;
67585;SDS011;55785;47.946;20.540;2022-10-16T00:19:55;7.15;;;4.70;;
67585;SDS011;55785;47.946;20.540;2022-10-16T00:22:20;11.07;;;6.00;;
67585;SDS011;55785;47.946;20.540;2022-10-16T00:24:46;10.65;;;5.20;;
67585;SDS011;55785;47.946;20.540;2022-10-16T00:27:11;9.82;;;4.97;;
67585;SDS011;55785;47.946;20.540;2022-10-16T00:29:36;12.32;;;5.65;;
67585;SDS011;55785;47.946;20.540;2022-10-16T00:32:01;9.27;;;4.90;;
67585;SDS011;55785;47.946;20.540;2022-10-16T00:34:27;10.25;;;5.40;;
67585;SDS011;55785;47.946;20.540;2022-10-16T00:36:52;9.43;;;4.65;;
67585;SDS011;55785;47.946;20.540;2022-10-16T00:39:17;9.40;;;4.97;;
67585;SDS011;55785;47.946;20.540;2022-10-16T00:41:43;10.25;;;5.25;;
67585;SDS011;55785;47.946;20.540;2022-10-16T00:47:15;9.07;;;5.18;;
67585;SDS011;55785;47.946;20.540;2022-10-16T00:49:44;9.73;;;4.93;;
67585;SDS011;55785;47.946;20.540;2022-10-16T00:52:12;8.32;;;4.47;;
67585;SDS011;55785;47.946;20.540;2022-10-16T00:54:39;6.45;;;4.97;;
67585;SDS011;55785;47.946;20.540;2022-10-16T00:57:05;11.30;;;5.22;;
67585;SDS011;55785;47.946;20.540;2022-10-16T00:59:39;8.82;;;4.90;;
67585;SDS011;55785;47.946;20.540;2022-10-16T01:02:10;11.57;;;5.32;;
67585;SDS011;55785;47.946;20.540;2022-10-16T01:04:38;8.75;;;5.30;;
67585;SDS011;55785;47.946;20.540;2022-10-16T01:15:30;8.00;;;5.43;;
67585;SDS011;55785;47.946;20.540;2022-10-16T01:18:13;7.53;;;5.47;;
67585;SDS011;55785;47.946;20.540;2022-10-16T01:28:22;7.90;;;5.35;;
67585;SDS011;55785;47.946;20.540;2022-10-16T01:30:53;8.52;;;4.90;;
67585;SDS011;55785;47.946;20.540;2022-10-16T01:33:24;10.82;;;4.90;;
67585;SDS011;55785;47.946;20.540;2022-10-16T01:35:56;9.27;;;5.03;;
67585;SDS011;55785;47.946;20.540;2022-10-16T01:38:34;9.38;;;5.20;;
67585;SDS011;55785;47.946;20.540;2022-10-16T01:41:24;7.78;;;5.50;;
67585;SDS011;55785;47.946;20.540;2022-10-16T01:43:58;14.13;;;5.80;;
67585;SDS011;55785;47.946;20.540;2022-10-16T01:46:25;8.60;;;5.15;;
67585;SDS011;55785;47.946;20.540;2022-10-16T01:48:51;9.68;;;5.05;;
67585;SDS011;55785;47.946;20.540;2022-10-16T01:51:17;12.57;;;5.35;;
67585;SDS011;55785;47.946;20.540;2022-10-16T01:53:48;7.75;;;5.00;;
67585;SDS011;55785;47.946;20.540;2022-10-16T01:56:17;7.55;;;5.45;;
67585;SDS011;55785;47.946;20.540;2022-10-16T01:58:54;9.10;;;5.22;;
67585;SDS011;55785;47.946;20.540;2022-10-16T02:01:23;13.00;;;5.55;;
67585;SDS011;55785;47.946;20.540;2022-10-16T02:03:52;8.95;;;5.55;;
67585;SDS011;55785;47.946;20.540;2022-10-16T02:06:20;9.73;;;5.43;;
67585;SDS011;55785;47.946;20.540;2022-10-16T02:08:46;9.02;;;5.15;;
67585;SDS011;55785;47.946;20.540;2022-10-16T02:11:11;7.20;;;5.18;;
67585;SDS011;55785;47.946;20.540;2022-10-16T02:13:41;9.25;;;5.45;;
67585;SDS011;55785;47.946;20.540;2022-10-16T02:16:11;9.80;;;5.20;;
67585;SDS011;55785;47.946;20.540;2022-10-16T02:18:38;9.02;;;5.40;;
67585;SDS011;55785;47.946;20.540;2022-10-16T02:21:10;6.93;;;5.10;;
67585;SDS011;55785;47.946;20.540;2022-10-16T02:23:45;8.30;;;4.88;;
67585;SDS011;55785;47.946;20.540;2022-10-16T02:26:19;8.43;;;4.80;;
67585;SDS011;55785;47.946;20.540;2022-10-16T02:28:53;8.20;;;5.25;;
67585;SDS011;55785;47.946;20.540;2022-10-16T02:31:25;10.02;;;5.00;;
67585;SDS011;55785;47.946;20.540;2022-10-16T02:33:54;7.78;;;5.32;;
67585;SDS011;55785;47.946;20.540;2022-10-16T02:36:23;7.88;;;5.13;;
67585;SDS011;55785;47.946;20.540;2022-10-16T02:38:48;11.65;;;5.20;;
67585;SDS011;55785;47.946;20.540;2022-10-16T02:41:14;8.20;;;4.97;;
67585;SDS011;55785;47.946;20.540;2022-10-16T02:43:40;7.57;;;5.10;;
67585;SDS011;55785;47.946;20.540;2022-10-16T02:46:05;6.78;;;4.90;;
67585;SDS011;55785;47.946;20.540;2022-10-16T02:48:30;12.35;;;4.88;;
67585;SDS011;55785;47.946;20.540;2022-10-16T02:50:56;8.52;;;4.88;;
67585;SDS011;55785;47.946;20.540;2022-10-16T02:53:21;9.23;;;4.80;;
67585;SDS011;55785;47.946;20.540;2022-10-16T02:55:46;10.60;;;5.65;;
67585;SDS011;55785;47.946;20.540;2022-10-16T02:58:11;9.98;;;4.57;;
67585;SDS011;55785;47.946;20.540;2022-10-16T03:00:37;8.27;;;4.68;;
67585;SDS011;55785;47.946;20.540;2022-10-16T03:03:02;9.35;;;5.05;;
67585;SDS011;55785;47.946;20.540;2022-10-16T03:05:27;7.30;;;4.63;;
67585;SDS011;55785;47.946;20.540;2022-10-16T03:07:53;10.55;;;4.90;;
67585;SDS011;55785;47.946;20.540;2022-10-16T03:10:18;6.05;;;4.07;;
67585;SDS011;55785;47.946;20.540;2022-10-16T03:12:44;10.25;;;4.68;;
67585;SDS011;55785;47.946;20.540;2022-10-16T03:15:09;8.98;;;4.90;;
67585;SDS011;55785;47.946;20.540;2022-10-16T03:17:34;8.32;;;5.07;;
67585;SDS011;55785;47.946;20.540;2022-10-16T03:20:00;8.93;;;4.75;;
67585;SDS011;55785;47.946;20.540;2022-10-16T03:22:25;8.05;;;4.85;;
67585;SDS011;55785;47.946;20.540;2022-10-16T03:24:50;7.45;;;4.80;;
67585;SDS011;55785;47.946;20.540;2022-10-16T03:27:16;7.63;;;4.87;;
67585;SDS011;55785;47.946;20.540;2022-10-16T03:29:41;8.27;;;4.90;;
67585;SDS011;55785;47.946;20.540;2022-10-16T03:32:06;11.52;;;4.57;;
67585;SDS011;55785;47.946;20.540;2022-10-16T03:34:32;8.02;;;4.90;;
67585;SDS011;55785;47.946;20.540;2022-10-16T03:36:57;9.07;;;5.22;;
67585;SDS011;55785;47.946;20.540;2022-10-16T03:39:22;9.63;;;5.15;;
67585;SDS011;55785;47.946;20.540;2022-10-16T03:41:48;7.75;;;4.45;;
67585;SDS011;55785;47.946;20.540;2022-10-16T03:44:13;9.63;;;5.22;;
67585;SDS011;55785;47.946;20.540;2022-10-16T03:46:38;7.63;;;5.13;;
67585;SDS011;55785;47.946;20.540;2022-10-16T03:49:04;10.60;;;5.07;;
67585;SDS011;55785;47.946;20.540;2022-10-16T03:51:30;9.45;;;5.53;;
67585;SDS011;55785;47.946;20.540;2022-10-16T03:53:55;9.27;;;5.28;;
67585;SDS011;55785;47.946;20.540;2022-10-16T03:56:21;11.85;;;5.05;;
67585;SDS011;55785;47.946;20.540;2022-10-16T03:58:46;8.30;;;5.20;;
67585;SDS011;55785;47.946;20.540;2022-10-16T04:01:11;9.00;;;5.03;;
67585;SDS011;55785;47.946;20.540;2022-10-16T04:03:37;6.57;;;5.17;;
67585;SDS011;55785;47.946;20.540;2022-10-16T04:06:02;10.07;;;5.63;;
67585;SDS011;55785;47.946;20.540;2022-10-16T04:08:27;7.28;;;5.13;;
67585;SDS011;55785;47.946;20.540;2022-10-16T04:10:53;9.57;;;5.60;;
67585;SDS011;55785;47.946;20.540;2022-10-16T04:13:18;10.13;;;5.00;;
67585;SDS011;55785;47.946;20.540;2022-10-16T04:15:44;7.47;;;5.00;;
67585;SDS011;55785;47.946;20.540;2022-10-16T04:18:10;12.18;;;5.40;;
67585;SDS011;55785;47.946;20.540;2022-10-16T04:20:35;7.88;;;5.10;;
67585;SDS011;55785;47.946;20.540;2022-10-16T04:23:01;10.10;;;5.03;;
67585;SDS011;55785;47.946;20.540;2022-10-16T04:25:26;7.93;;;5.35;;
67585;SDS011;55785;47.946;20.540;2022-10-16T04:27:55;9.15;;;4.88;;
67585;SDS011;55785;47.946;20.540;2022-10-16T04:30:20;10.45;;;5.10;;
67585;SDS011;55785;47.946;20.540;2022-10-16T04:32:50;8.77;;;5.20;;
67585;SDS011;55785;47.946;20.540;2022-10-16T04:35:17;11.80;;;5.27;;
67585;SDS011;55785;47.946;20.540;2022-10-16T04:37:43;9.10;;;5.00;;
67585;SDS011;55785;47.946;20.540;2022-10-16T04:40:08;8.03;;;5.10;;
67585;SDS011;55785;47.946;20.540;2022-10-16T04:42:34;7.97;;;5.13;;
67585;SDS011;55785;47.946;20.540;2022-10-16T04:44:59;8.20;;;5.28;;
67585;SDS011;55785;47.946;20.540;2022-10-16T04:47:24;7.17;;;4.67;;
67585;SDS011;55785;47.946;20.540;2022-10-16T04:49:49;8.63;;;4.97;;
67585;SDS011;55785;47.946;20.540;2022-10-16T04:52:15;9.13;;;5.20;;
67585;SDS011;55785;47.946;20.540;2022-10-16T04:54:40;8.47;;;5.80;;
67585;SDS011;55785;47.946;20.540;2022-10-16T04:57:05;8.40;;;4.80;;
67585;SDS011;55785;47.946;20.540;2022-10-16T04:59:31;6.10;;;4.60;;
67585;SDS011;55785;47.946;20.540;2022-10-16T05:01:56;8.67;;;4.97;;
67585;SDS011;55785;47.946;20.540;2022-10-16T05:04:21;8.00;;;4.93;;
67585;SDS011;55785;47.946;20.540;2022-10-16T05:06:47;9.57;;;5.07;;
67585;SDS011;55785;47.946;20.540;2022-10-16T05:09:12;10.80;;;5.20;;
67585;SDS011;55785;47.946;20.540;2022-10-16T05:11:38;9.13;;;4.90;;
67585;SDS011;55785;47.946;20.540;2022-10-16T05:14:03;12.13;;;5.50;;
67585;SDS011;55785;47.946;20.540;2022-10-16T05:16:28;8.20;;;5.40;;
67585;SDS011;55785;47.946;20.540;2022-10-16T05:18:54;8.93;;;5.23;;
67585;SDS011;55785;47.946;20.540;2022-10-16T05:21:20;9.27;;;5.33;;
67585;SDS011;55785;47.946;20.540;2022-10-16T05:23:45;14.30;;;5.30;;
67585;SDS011;55785;47.946;20.540;2022-10-16T05:26:11;11.27;;;5.23;;
67585;SDS011;55785;47.946;20.540;2022-10-16T05:28:36;11.20;;;5.60;;
67585;SDS011;55785;47.946;20.540;2022-10-16T05:31:08;7.93;;;5.00;;
67585;SDS011;55785;47.946;20.540;2022-10-16T05:33:34;9.73;;;5.17;;
67585;SDS011;55785;47.946;20.540;2022-10-16T05:36:07;10.27;;;5.60;;
67585;SDS011;55785;47.946;20.540;2022-10-16T05:38:34;9.53;;;5.00;;
67585;SDS011;55785;47.946;20.540;2022-10-16T05:41:01;7.83;;;5.20;;
67585;SDS011;55785;47.946;20.540;2022-10-16T05:43:27;9.77;;;5.28;;
67585;SDS011;55785;47.946;20.540;2022-10-16T05:45:57;11.23;;;5.40;;
67585;SDS011;55785;47.946;20.540;2022-10-16T05:48:24;10.33;;;4.90;;
67585;SDS011;55785;47.946;20.540;2022-10-16T05:50:56;7.47;;;5.40;;
67585;SDS011;55785;47.946;20.540;2022-10-16T05:53:26;9.40;;;4.90;;
67585;SDS011;55785;47.946;20.540;2022-10-16T05:55:53;7.47;;;4.83;;
67585;SDS011;55785;47.946;20.540;2022-10-16T05:58:19;8.10;;;4.90;;
67585;SDS011;55785;47.946;20.540;2022-10-16T06:00:52;7.77;;;4.80;;
67585;SDS011;55785;47.946;20.540;2022-10-16T06:03:24;10.67;;;5.50;;
67585;SDS011;55785;47.946;20.540;2022-10-16T06:05:50;9.23;;;4.90;;
67585;SDS011;55785;47.946;20.540;2022-10-16T06:08:15;7.65;;;5.20;;
67585;SDS011;55785;47.946;20.540;2022-10-16T06:10:41;7.73;;;5.30;;
67585;SDS011;55785;47.946;20.540;2022-10-16T06:13:06;8.97;;;5.20;;
67585;SDS011;55785;47.946;20.540;2022-10-16T06:15:31;10.63;;;5.50;;
67585;SDS011;55785;47.946;20.540;2022-10-16T06:17:57;9.30;;;5.80;;
67585;SDS011;55785;47.946;20.540;2022-10-16T06:20:22;15.20;;;5.60;;
67585;SDS011;55785;47.946;20.540;2022-10-16T06:22:47;10.37;;;5.97;;
67585;SDS011;55785;47.946;20.540;2022-10-16T06:25:13;13.25;;;5.38;;
67585;SDS011;55785;47.946;20.540;2022-10-16T06:27:41;11.38;;;5.32;;
67585;SDS011;55785;47.946;20.540;2022-10-16T06:30:07;7.65;;;5.57;;
67585;SDS011;55785;47.946;20.540;2022-10-16T06:32:32;8.20;;;5.60;;
67585;SDS011;55785;47.946;20.540;2022-10-16T06:34:58;10.45;;;5.43;;
67585;SDS011;55785;47.946;20.540;2022-10-16T06:37:23;11.85;;;5.93;;
67585;SDS011;55785;47.946;20.540;2022-10-16T06:39:48;10.80;;;5.45;;
67585;SDS011;55785;47.946;20.540;2022-10-16T06:42:14;8.00;;;5.32;;
67585;SDS011;55785;47.946;20.540;2022-10-16T06:44:39;8.30;;;4.95;;
67585;SDS011;55785;47.946;20.540;2022-10-16T06:47:04;8.18;;;5.07;;
67585;SDS011;55785;47.946;20.540;2022-10-16T06:49:29;8.43;;;5.13;;
67585;SDS011;55785;47.946;20.540;2022-10-16T06:51:55;10.15;;;5.45;;
67585;SDS011;55785;47.946;20.540;2022-10-16T06:54:20;9.70;;;5.60;;
67585;SDS011;55785;47.946;20.540;2022-10-16T06:56:45;7.90;;;5.22;;
67585;SDS011;55785;47.946;20.540;2022-10-16T06:59:11;10.02;;;5.55;;
67585;SDS011;55785;47.946;20.540;2022-10-16T07:01:36;10.18;;;5.32;;
67585;SDS011;55785;47.946;20.540;2022-10-16T07:04:01;8.40;;;5.32;;
67585;SDS011;55785;47.946;20.540;2022-10-16T07:06:30;6.72;;;4.80;;
67585;SDS011;55785;47.946;20.540;2022-10-16T07:08:56;6.82;;;4.97;;
67585;SDS011;55785;47.946;20.540;2022-10-16T07:11:22;11.15;;;5.18;;
67585;SDS011;55785;47.946;20.540;2022-10-16T07:13:48;7.75;;;5.28;;
67585;SDS011;55785;47.946;20.540;2022-10-16T07:16:16;10.48;;;5.50;;
67585;SDS011;55785;47.946;20.540;2022-10-16T07:18:43;9.00;;;4.97;;
67585;SDS011;55785;47.946;20.540;2022-10-16T07:21:10;8.35;;;5.05;;
67585;SDS011;55785;47.946;20.540;2022-10-16T07:23:43;8.40;;;5.35;;
67585;SDS011;55785;47.946;20.540;2022-10-16T07:26:09;9.35;;;5.13;;
67585;SDS011;55785;47.946;20.540;2022-10-16T07:28:34;9.20;;;5.00;;
67585;SDS011;55785;47.946;20.540;2022-10-16T07:31:07;9.80;;;5.50;;
67585;SDS011;55785;47.946;20.540;2022-10-16T07:33:35;8.45;;;5.10;;
67585;SDS011;55785;47.946;20.540;2022-10-16T07:36:00;9.27;;;5.05;;
67585;SDS011;55785;47.946;20.540;2022-10-16T07:38:26;7.88;;;4.80;;
67585;SDS011;55785;47.946;20.540;2022-10-16T07:40:58;9.60;;;5.65;;
67585;SDS011;55785;47.946;20.540;2022-10-16T07:43:25;10.27;;;5.10;;
67585;SDS011;55785;47.946;20.540;2022-10-16T07:45:51;8.73;;;4.68;;
67585;SDS011;55785;47.946;20.540;2022-10-16T07:48:16;7.13;;;4.53;;
67585;SDS011;55785;47.946;20.540;2022-10-16T07:50:42;9.32;;;4.78;;
67585;SDS011;55785;47.946;20.540;2022-10-16T07:53:09;8.02;;;4.75;;
67585;SDS011;55785;47.946;20.540;2022-10-16T07:55:35;7.55;;;4.70;;
67585;SDS011;55785;47.946;20.540;2022-10-16T07:58:01;9.02;;;4.50;;
67585;SDS011;55785;47.946;20.540;2022-10-16T08:00:26;9.98;;;4.32;;
67585;SDS011;55785;47.946;20.540;2022-10-16T08:02:51;7.05;;;4.47;;
67585;SDS011;55785;47.946;20.540;2022-10-16T08:05:17;11.30;;;4.80;;
67585;SDS011;55785;47.946;20.540;2022-10-16T08:07:42;5.15;;;4.05;;
67585;SDS011;55785;47.946;20.540;2022-10-16T08:10:11;10.15;;;4.95;;
67585;SDS011;55785;47.946;20.540;2022-10-16T08:12:41;10.70;;;4.82;;
67585;SDS011;55785;47.946;20.540;2022-10-16T08:15:07;10.25;;;4.65;;
67585;SDS011;55785;47.946;20.540;2022-10-16T08:17:33;9.95;;;5.00;;
67585;SDS011;55785;47.946;20.540;2022-10-16T08:19:58;9.85;;;4.65;;
67585;SDS011;55785;47.946;20.540;2022-10-16T08:22:23;9.32;;;4.85;;
67585;SDS011;55785;47.946;20.540;2022-10-16T08:24:49;11.00;;;4.85;;
67585;SDS011;55785;47.946;20.540;2022-10-16T08:27:14;8.73;;;4.93;;
67585;SDS011;55785;47.946;20.540;2022-10-16T08:29:39;10.27;;;4.95;;
67585;SDS011;55785;47.946;20.540;2022-10-16T08:32:05;9.27;;;4.75;;
67585;SDS011;55785;47.946;20.540;2022-10-16T08:34:30;6.47;;;4.32;;
67585;SDS011;55785;47.946;20.540;2022-10-16T08:36:55;9.52;;;4.45;;
67585;SDS011;55785;47.946;20.540;2022-10-16T08:39:21;9.00;;;4.65;;
67585;SDS011;55785;47.946;20.540;2022-10-16T08:41:54;7.80;;;4.50;;
67585;SDS011;55785;47.946;20.540;2022-10-16T08:47:18;6.35;;;4.00;;
67585;SDS011;55785;47.946;20.540;2022-10-16T08:49:57;6.53;;;4.50;;
67585;SDS011;55785;47.946;20.540;2022-10-16T08:52:27;6.97;;;4.25;;
67585;SDS011;55785;47.946;20.540;2022-10-16T08:54:56;7.32;;;4.25;;
67585;SDS011;55785;47.946;20.540;2022-10-16T08:57:22;9.95;;;4.68;;
67585;SDS011;55785;47.946;20.540;2022-10-16T08:59:49;8.23;;;4.05;;
67585;SDS011;55785;47.946;20.540;2022-10-16T09:02:20;9.38;;;4.75;;
67585;SDS011;55785;47.946;20.540;2022-10-16T09:04:54;6.75;;;4.25;;
67585;SDS011;55785;47.946;20.540;2022-10-16T09:08:16;9.60;;;4.38;;
67585;SDS011;55785;47.946;20.540;2022-10-16T09:10:38;7.40;;;4.60;;
67585;SDS011;55785;47.946;20.540;2022-10-16T09:23:43;6.50;;;4.35;;
67585;SDS011;55785;47.946;20.540;2022-10-16T09:26:10;8.13;;;4.55;;
67585;SDS011;55785;47.946;20.540;2022-10-16T09:28:37;9.18;;;4.50;;
67585;SDS011;55785;47.946;20.540;2022-10-16T09:31:03;7.18;;;4.88;;
67585;SDS011;55785;47.946;20.540;2022-10-16T09:33:29;9.25;;;4.30;;
67585;SDS011;55785;47.946;20.540;2022-10-16T09:35:59;8.52;;;4.30;;
67585;SDS011;55785;47.946;20.540;2022-10-16T09:38:29;7.18;;;4.32;;
67585;SDS011;55785;47.946;20.540;2022-10-16T09:40:56;7.18;;;4.50;;
67585;SDS011;55785;47.946;20.540;2022-10-16T09:48:21;10.13;;;5.20;;
67585;SDS011;55785;47.946;20.540;2022-10-16T09:51:00;8.00;;;5.00;;
67585;SDS011;55785;47.946;20.540;2022-10-16T09:53:37;10.52;;;4.72;;
67585;SDS011;55785;47.946;20.540;2022-10-16T09:56:05;8.70;;;4.28;;
67585;SDS011;55785;47.946;20.540;2022-10-16T09:58:30;7.30;;;4.20;;
67585;SDS011;55785;47.946;20.540;2022-10-16T10:00:55;9.02;;;4.65;;
67585;SDS011;55785;47.946;20.540;2022-10-16T10:05:58;9.05;;;4.97;;
67585;SDS011;55785;47.946;20.540;2022-10-16T10:08:25;5.95;;;4.20;;
67585;SDS011;55785;47.946;20.540;2022-10-16T10:10:51;10.88;;;4.30;;
67585;SDS011;55785;47.946;20.540;2022-10-16T10:13:17;9.07;;;4.25;;
67585;SDS011;55785;47.946;20.540;2022-10-16T10:15:44;9.70;;;4.20;;
67585;SDS011;55785;47.946;20.540;2022-10-16T10:18:17;10.82;;;4.38;;
67585;SDS011;55785;47.946;20.540;2022-10-16T10:20:44;6.38;;;4.20;;
67585;SDS011;55785;47.946;20.540;2022-10-16T10:23:20;9.38;;;4.20;;
67585;SDS011;55785;47.946;20.540;2022-10-16T10:25:55;9.85;;;4.10;;
67585;SDS011;55785;47.946;20.540;2022-10-16T10:29:01;6.63;;;3.90;;
67585;SDS011;55785;47.946;20.540;2022-10-16T10:36:41;5.72;;;4.10;;
67585;SDS011;55785;47.946;20.540;2022-10-16T10:39:27;8.48;;;4.53;;
67585;SDS011;55785;47.946;20.540;2022-10-16T10:53:11;7.18;;;4.40;;
67585;SDS011;55785;47.946;20.540;2022-10-16T11:01:48;5.53;;;3.80;;
67585;SDS011;55785;47.946;20.540;2022-10-16T11:06:59;7.63;;;4.20;;
67585;SDS011;55785;47.946;20.540;2022-10-16T11:09:39;8.30;;;4.35;;
67585;SDS011;55785;47.946;20.540;2022-10-16T11:17:39;5.53;;;3.75;;
67585;SDS011;55785;47.946;20.540;2022-10-16T11:20:30;7.45;;;3.60;;
67585;SDS011;55785;47.946;20.540;2022-10-16T11:23:07;7.90;;;4.40;;
67585;SDS011;55785;47.946;20.540;2022-10-16T11:25:41;5.32;;;3.83;;
67585;SDS011;55785;47.946;20.540;2022-10-16T11:30:44;6.68;;;3.95;;
67585;SDS011;55785;47.946;20.540;2022-10-16T11:38:42;7.28;;;3.92;;
67585;SDS011;55785;47.946;20.540;2022-10-16T11:41:18;5.03;;;3.60;;
67585;SDS011;55785;47.946;20.540;2022-10-16T11:43:58;7.07;;;4.00;;
67585;SDS011;55785;47.946;20.540;2022-10-16T11:46:25;8.20;;;4.30;;
67585;SDS011;55785;47.946;20.540;2022-10-16T11:51:33;5.47;;;3.50;;
67585;SDS011;55785;47.946;20.540;2022-10-16T11:56:53;5.97;;;3.80;;
67585;SDS011;55785;47.946;20.540;2022-10-16T12:04:40;7.40;;;3.53;;
67585;SDS011;55785;47.946;20.540;2022-10-16T12:07:18;6.32;;;3.90;;
67585;SDS011;55785;47.946;20.540;2022-10-16T12:09:48;6.30;;;3.60;;
67585;SDS011;55785;47.946;20.540;2022-10-16T12:12:24;5.88;;;3.50;;
67585;SDS011;55785;47.946;20.540;2022-10-16T12:14:59;5.55;;;4.10;;
67585;SDS011;55785;47.946;20.540;2022-10-16T12:17:27;5.50;;;3.80;;
67585;SDS011;55785;47.946;20.540;2022-10-16T12:20:12;6.45;;;3.90;;
67585;SDS011;55785;47.946;20.540;2022-10-16T12:22:52;7.13;;;3.60;;
67585;SDS011;55785;47.946;20.540;2022-10-16T12:25:20;6.55;;;3.80;;
67585;SDS011;55785;47.946;20.540;2022-10-16T12:27:58;5.88;;;3.78;;
67585;SDS011;55785;47.946;20.540;2022-10-16T12:30:26;5.65;;;3.30;;
67585;SDS011;55785;47.946;20.540;2022-10-16T12:32:54;6.10;;;3.40;;
67585;SDS011;55785;47.946;20.540;2022-10-16T12:35:22;8.48;;;3.50;;
67585;SDS011;55785;47.946;20.540;2022-10-16T12:38:05;5.13;;;3.58;;
67585;SDS011;55785;47.946;20.540;2022-10-16T12:40:34;5.30;;;3.22;;
67585;SDS011;55785;47.946;20.540;2022-10-16T12:45:45;7.10;;;3.53;;
67585;SDS011;55785;47.946;20.540;2022-10-16T12:48:28;5.90;;;3.33;;
67585;SDS011;55785;47.946;20.540;2022-10-16T12:50:53;5.93;;;3.25;;
67585;SDS011;55785;47.946;20.540;2022-10-16T12:55:57;7.25;;;3.38;;
67585;SDS011;55785;47.946;20.540;2022-10-16T13:10:02;6.93;;;3.33;;
67585;SDS011;55785;47.946;20.540;2022-10-16T13:23:51;7.15;;;3.33;;
67585;SDS011;55785;47.946;20.540;2022-10-16T13:29:48;5.47;;;3.33;;
67585;SDS011;55785;47.946;20.540;2022-10-16T13:32:19;5.00;;;3.05;;
67585;SDS011;55785;47.946;20.540;2022-10-16T13:34:46;7.13;;;3.20;;
67585;SDS011;55785;47.946;20.540;2022-10-16T13:37:19;4.20;;;3.17;;
67585;SDS011;55785;47.946;20.540;2022-10-16T13:39:47;8.60;;;3.40;;
67585;SDS011;55785;47.946;20.540;2022-10-16T13:42:14;5.93;;;3.30;;
67585;SDS011;55785;47.946;20.540;2022-10-16T13:44:51;5.07;;;3.08;;
67585;SDS011;55785;47.946;20.540;2022-10-16T13:47:20;6.90;;;3.17;;
67585;SDS011;55785;47.946;20.540;2022-10-16T13:49:46;5.47;;;3.10;;
67585;SDS011;55785;47.946;20.540;2022-10-16T13:52:23;4.53;;;3.20;;
67585;SDS011;55785;47.946;20.540;2022-10-16T13:54:48;4.82;;;3.28;;
67585;SDS011;55785;47.946;20.540;2022-10-16T13:57:14;4.95;;;3.25;;
67585;SDS011;55785;47.946;20.540;2022-10-16T13:59:40;5.45;;;3.15;;
67585;SDS011;55785;47.946;20.540;2022-10-16T14:02:10;5.85;;;3.00;;
67585;SDS011;55785;47.946;20.540;2022-10-16T14:04:43;6.32;;;3.25;;
67585;SDS011;55785;47.946;20.540;2022-10-16T14:07:28;6.43;;;3.00;;
67585;SDS011;55785;47.946;20.540;2022-10-16T14:09:55;5.28;;;3.20;;
67585;SDS011;55785;47.946;20.540;2022-10-16T14:12:31;5.65;;;3.03;;
67585;SDS011;55785;47.946;20.540;2022-10-16T14:14:57;5.10;;;2.95;;
67585;SDS011;55785;47.946;20.540;2022-10-16T14:17:25;5.63;;;2.78;;
67585;SDS011;55785;47.946;20.540;2022-10-16T14:19:56;4.35;;;2.92;;
67585;SDS011;55785;47.946;20.540;2022-10-16T14:22:39;4.35;;;3.00;;
67585;SDS011;55785;47.946;20.540;2022-10-16T14:27:59;4.60;;;3.33;;
67585;SDS011;55785;47.946;20.540;2022-10-16T14:30:25;5.20;;;2.97;;
67585;SDS011;55785;47.946;20.540;2022-10-16T14:32:58;8.15;;;3.10;;
67585;SDS011;55785;47.946;20.540;2022-10-16T14:37:51;4.53;;;3.00;;
67585;SDS011;55785;47.946;20.540;2022-10-16T14:40:23;7.88;;;2.97;;
67585;SDS011;55785;47.946;20.540;2022-10-16T14:42:53;7.10;;;2.97;;
67585;SDS011;55785;47.946;20.540;2022-10-16T14:45:20;5.75;;;2.88;;
67585;SDS011;55785;47.946;20.540;2022-10-16T14:47:49;5.22;;;2.97;;
67585;SDS011;55785;47.946;20.540;2022-10-16T14:50:17;5.00;;;3.00;;
67585;SDS011;55785;47.946;20.540;2022-10-16T14:52:42;5.15;;;3.08;;
67585;SDS011;55785;47.946;20.540;2022-10-16T14:55:08;5.30;;;3.30;;
67585;SDS011;55785;47.946;20.540;2022-10-16T14:57:34;4.10;;;3.00;;
67585;SDS011;55785;47.946;20.540;2022-10-16T15:00:03;5.28;;;2.88;;
67585;SDS011;55785;47.946;20.540;2022-10-16T15:02:34;7.10;;;3.28;;
67585;SDS011;55785;47.946;20.540;2022-10-16T15:05:04;4.15;;;3.28;;
67585;SDS011;55785;47.946;20.540;2022-10-16T15:07:37;4.07;;;3.08;;
67585;SDS011;55785;47.946;20.540;2022-10-16T15:10:02;6.15;;;3.03;;
67585;SDS011;55785;47.946;20.540;2022-10-16T15:12:28;6.88;;;3.47;;
67585;SDS011;55785;47.946;20.540;2022-10-16T15:14:53;5.95;;;4.43;;
67585;SDS011;55785;47.946;20.540;2022-10-16T15:17:18;6.00;;;3.65;;
67585;SDS011;55785;47.946;20.540;2022-10-16T15:19:44;8.00;;;4.28;;
67585;SDS011;55785;47.946;20.540;2022-10-16T15:22:10;6.45;;;3.95;;
67585;SDS011;55785;47.946;20.540;2022-10-16T15:24:36;6.70;;;4.40;;
67585;SDS011;55785;47.946;20.540;2022-10-16T15:27:01;134.68;;;73.10;;
67585;SDS011;55785;47.946;20.540;2022-10-16T15:29:27;110.00;;;51.90;;
67585;SDS011;55785;47.946;20.540;2022-10-16T15:31:52;108.07;;;48.70;;
67585;SDS011;55785;47.946;20.540;2022-10-16T15:34:17;75.15;;;32.42;;
67585;SDS011;55785;47.946;20.540;2022-10-16T15:36:43;28.48;;;13.05;;
67585;SDS011;55785;47.946;20.540;2022-10-16T15:39:15;39.80;;;19.80;;
67585;SDS011;55785;47.946;20.540;2022-10-16T15:41:42;55.35;;;28.63;;
67585;SDS011;55785;47.946;20.540;2022-10-16T15:44:08;115.72;;;51.05;;
67585;SDS011;55785;47.946;20.540;2022-10-16T15:46:33;120.68;;;52.47;;
67585;SDS011;55785;47.946;20.540;2022-10-16T15:48:59;100.90;;;43.40;;
67585;SDS011;55785;47.946;20.540;2022-10-16T15:51:25;54.80;;;20.20;;
67585;SDS011;55785;47.946;20.540;2022-10-16T15:53:52;32.90;;;12.45;;
67585;SDS011;55785;47.946;20.540;2022-10-16T15:56:17;27.73;;;11.18;;
67585;SDS011;55785;47.946;20.540;2022-10-16T15:58:43;10.85;;;5.57;;
67585;SDS011;55785;47.946;20.540;2022-10-16T16:01:09;13.20;;;6.25;;
67585;SDS011;55785;47.946;20.540;2022-10-16T16:03:35;13.40;;;7.63;;
67585;SDS011;55785;47.946;20.540;2022-10-16T16:06:08;11.38;;;5.40;;
67585;SDS011;55785;47.946;20.540;2022-10-16T16:08:35;13.43;;;5.43;;
67585;SDS011;55785;47.946;20.540;2022-10-16T16:11:02;7.75;;;4.07;;
67585;SDS011;55785;47.946;20.540;2022-10-16T16:13:28;6.13;;;3.90;;
67585;SDS011;55785;47.946;20.540;2022-10-16T16:15:53;7.68;;;4.10;;
67585;SDS011;55785;47.946;20.540;2022-10-16T16:18:18;5.55;;;3.78;;
67585;SDS011;55785;47.946;20.540;2022-10-16T16:20:44;5.72;;;3.80;;
67585;SDS011;55785;47.946;20.540;2022-10-16T16:23:09;5.28;;;3.90;;
67585;SDS011;55785;47.946;20.540;2022-10-16T16:25:34;9.50;;;5.43;;
67585;SDS011;55785;47.946;20.540;2022-10-16T16:28:00;8.27;;;4.47;;
67585;SDS011;55785;47.946;20.540;2022-10-16T16:30:25;12.43;;;4.22;;
67585;SDS011;55785;47.946;20.540;2022-10-16T16:32:50;6.60;;;3.78;;
67585;SDS011;55785;47.946;20.540;2022-10-16T16:35:16;6.25;;;3.60;;
67585;SDS011;55785;47.946;20.540;2022-10-16T16:37:41;6.50;;;3.63;;
67585;SDS011;55785;47.946;20.540;2022-10-16T16:40:06;6.18;;;3.50;;
67585;SDS011;55785;47.946;20.540;2022-10-16T16:42:32;5.65;;;3.50;;